sensor_id;sensor_type;location;lat;lon;timestamp;pressure;altitude;pressure_sealevel;temperature;humidity
48089;BME280;33867;50.314;7.802;2023-07-16T00:03:14;99942.25;;;21.23;63.44
48089;BME280;33867;50.314;7.802;2023-07-16T00:06:33;99959.13;;;21.20;62.44
48089;BME280;33867;50.314;7.802;2023-07-16T00:09:51;99945.47;;;21.13;60.84
48089;BME280;33867;50.314;7.802;2023-07-16T00:13:10;99943.50;;;21.27;63.28
48089;BME280;33867;50.314;7.802;2023-07-16T00:16:29;99948.84;;;21.15;63.22
48089;BME280;33867;50.314;7.802;2023-07-16T00:19:48;99943.00;;;21.05;62.62
48089;BME280;33867;50.314;7.802;2023-07-16T00:23:07;99946.13;;;20.84;61.29
48089;BME280;33867;50.314;7.802;2023-07-16T00:26:26;99963.56;;;20.89;63.02
48089;BME280;33867;50.314;7.802;2023-07-16T00:29:45;99955.31;;;20.96;62.46
48089;BME280;33867;50.314;7.802;2023-07-16T00:33:04;99946.75;;;20.86;63.24
48089;BME280;33867;50.314;7.802;2023-07-16T00:36:24;99951.41;;;20.79;62.58
48089;BME280;33867;50.314;7.802;2023-07-16T00:39:43;99958.75;;;20.85;63.32
48089;BME280;33867;50.314;7.802;2023-07-16T00:43:02;99955.56;;;20.88;63.55
48089;BME280;33867;50.314;7.802;2023-07-16T00:46:21;99960.44;;;20.86;63.51
48089;BME280;33867;50.314;7.802;2023-07-16T00:49:41;99957.47;;;20.87;63.15
48089;BME280;33867;50.314;7.802;2023-07-16T00:53:01;99963.19;;;20.79;63.62
48089;BME280;33867;50.314;7.802;2023-07-16T00:56:21;99956.28;;;20.70;63.09
48089;BME280;33867;50.314;7.802;2023-07-16T00:59:40;99961.63;;;20.58;64.18
48089;BME280;33867;50.314;7.802;2023-07-16T01:03:01;99969.97;;;20.70;63.89
48089;BME280;33867;50.314;7.802;2023-07-16T01:06:25;99971.09;;;20.62;63.81
48089;BME280;33867;50.314;7.802;2023-07-16T01:09:46;99971.69;;;20.64;63.96
48089;BME280;33867;50.314;7.802;2023-07-16T01:13:05;99970.72;;;20.52;63.61
48089;BME280;33867;50.314;7.802;2023-07-16T01:16:25;99975.97;;;20.47;64.21
48089;BME280;33867;50.314;7.802;2023-07-16T01:19:44;99973.69;;;20.44;64.15
48089;BME280;33867;50.314;7.802;2023-07-16T01:23:20;99974.94;;;20.41;63.91
48089;BME280;33867;50.314;7.802;2023-07-16T01:30:23;99992.63;;;20.32;64.32
48089;BME280;33867;50.314;7.802;2023-07-16T01:33:45;100001.50;;;20.28;64.64
48089;BME280;33867;50.314;7.802;2023-07-16T01:37:06;100009.47;;;20.23;64.99
48089;BME280;33867;50.314;7.802;2023-07-16T01:40:25;100009.09;;;20.12;65.68
48089;BME280;33867;50.314;7.802;2023-07-16T01:43:44;100014.41;;;19.94;65.77
48089;BME280;33867;50.314;7.802;2023-07-16T01:50:23;100023.66;;;19.93;65.94
48089;BME280;33867;50.314;7.802;2023-07-16T01:53:43;100013.97;;;19.97;65.64
48089;BME280;33867;50.314;7.802;2023-07-16T01:57:11;100019.22;;;19.85;66.27
48089;BME280;33867;50.314;7.802;2023-07-16T02:00:30;100022.00;;;19.79;65.49
48089;BME280;33867;50.314;7.802;2023-07-16T02:03:50;100019.66;;;19.76;66.40
48089;BME280;33867;50.314;7.802;2023-07-16T02:07:09;100018.59;;;19.77;66.32
48089;BME280;33867;50.314;7.802;2023-07-16T02:10:28;100019.47;;;19.64;65.77
48089;BME280;33867;50.314;7.802;2023-07-16T02:13:47;100025.78;;;19.71;66.49
48089;BME280;33867;50.314;7.802;2023-07-16T02:17:06;100024.72;;;19.59;65.96
48089;BME280;33867;50.314;7.802;2023-07-16T02:20:25;100024.31;;;19.55;66.76
48089;BME280;33867;50.314;7.802;2023-07-16T02:23:45;100039.41;;;19.65;66.85
48089;BME280;33867;50.314;7.802;2023-07-16T02:27:04;100027.25;;;19.61;66.38
48089;BME280;33867;50.314;7.802;2023-07-16T02:30:23;100037.75;;;19.57;66.86
48089;BME280;33867;50.314;7.802;2023-07-16T02:33:42;100042.16;;;19.58;66.64
48089;BME280;33867;50.314;7.802;2023-07-16T02:37:01;100047.16;;;19.41;66.77
48089;BME280;33867;50.314;7.802;2023-07-16T02:40:20;100051.13;;;19.39;66.93
48089;BME280;33867;50.314;7.802;2023-07-16T02:43:39;100066.69;;;19.38;66.91
48089;BME280;33867;50.314;7.802;2023-07-16T02:46:58;100053.03;;;19.32;67.29
48089;BME280;33867;50.314;7.802;2023-07-16T02:50:17;100064.16;;;19.37;67.14
48089;BME280;33867;50.314;7.802;2023-07-16T02:53:37;100069.63;;;19.30;66.95
48089;BME280;33867;50.314;7.802;2023-07-16T02:56:55;100077.81;;;19.30;66.89
48089;BME280;33867;50.314;7.802;2023-07-16T03:00:15;100099.22;;;19.20;67.29
48089;BME280;33867;50.314;7.802;2023-07-16T03:03:34;100093.50;;;19.15;66.62
48089;BME280;33867;50.314;7.802;2023-07-16T03:06:53;100102.78;;;19.27;66.78
48089;BME280;33867;50.314;7.802;2023-07-16T03:10:15;100099.41;;;19.18;66.89
48089;BME280;33867;50.314;7.802;2023-07-16T03:13:34;100106.56;;;19.19;66.95
48089;BME280;33867;50.314;7.802;2023-07-16T03:16:53;100115.59;;;19.26;66.96
48089;BME280;33867;50.314;7.802;2023-07-16T03:20:12;100114.03;;;19.04;67.28
48089;BME280;33867;50.314;7.802;2023-07-16T03:23:32;100114.66;;;18.99;66.53
48089;BME280;33867;50.314;7.802;2023-07-16T03:26:51;100118.91;;;19.09;66.81
48089;BME280;33867;50.314;7.802;2023-07-16T03:30:10;100125.22;;;19.16;67.07
48089;BME280;33867;50.314;7.802;2023-07-16T03:33:30;100119.75;;;19.09;67.18
48089;BME280;33867;50.314;7.802;2023-07-16T03:36:49;100126.03;;;19.10;66.90
48089;BME280;33867;50.314;7.802;2023-07-16T03:40:16;100125.38;;;18.94;67.06
48089;BME280;33867;50.314;7.802;2023-07-16T03:43:37;100129.50;;;18.84;66.72
48089;BME280;33867;50.314;7.802;2023-07-16T03:47:16;100127.44;;;18.92;66.72
48089;BME280;33867;50.314;7.802;2023-07-16T03:50:35;100133.31;;;18.89;67.10
48089;BME280;33867;50.314;7.802;2023-07-16T03:53:54;100137.16;;;18.67;67.20
48089;BME280;33867;50.314;7.802;2023-07-16T03:57:13;100138.28;;;18.79;66.88
48089;BME280;33867;50.314;7.802;2023-07-16T04:00:32;100134.91;;;18.77;67.19
48089;BME280;33867;50.314;7.802;2023-07-16T04:03:52;100136.66;;;18.57;67.73
48089;BME280;33867;50.314;7.802;2023-07-16T04:07:11;100140.69;;;18.61;67.30
48089;BME280;33867;50.314;7.802;2023-07-16T04:10:30;100143.72;;;18.45;66.93
48089;BME280;33867;50.314;7.802;2023-07-16T04:13:49;100157.25;;;18.59;67.65
48089;BME280;33867;50.314;7.802;2023-07-16T04:17:09;100161.66;;;18.32;67.07
48089;BME280;33867;50.314;7.802;2023-07-16T04:20:28;100168.75;;;18.55;67.34
48089;BME280;33867;50.314;7.802;2023-07-16T04:23:47;100168.16;;;18.31;66.65
48089;BME280;33867;50.314;7.802;2023-07-16T04:27:06;100175.09;;;18.06;67.27
48089;BME280;33867;50.314;7.802;2023-07-16T04:30:25;100181.59;;;18.33;67.38
48089;BME280;33867;50.314;7.802;2023-07-16T04:33:45;100179.97;;;18.38;67.20
48089;BME280;33867;50.314;7.802;2023-07-16T04:37:04;100182.28;;;18.41;67.23
48089;BME280;33867;50.314;7.802;2023-07-16T04:40:23;100184.00;;;18.21;66.30
48089;BME280;33867;50.314;7.802;2023-07-16T04:43:42;100181.00;;;18.37;65.79
48089;BME280;33867;50.314;7.802;2023-07-16T04:47:01;100195.94;;;18.69;66.30
48089;BME280;33867;50.314;7.802;2023-07-16T04:50:20;100193.34;;;18.61;67.04
48089;BME280;33867;50.314;7.802;2023-07-16T04:53:39;100202.31;;;18.27;66.41
48089;BME280;33867;50.314;7.802;2023-07-16T04:56:58;100204.16;;;18.76;66.23
48089;BME280;33867;50.314;7.802;2023-07-16T05:00:17;100213.78;;;18.72;65.85
48089;BME280;33867;50.314;7.802;2023-07-16T05:03:37;100216.66;;;18.64;65.95
48089;BME280;33867;50.314;7.802;2023-07-16T05:06:56;100227.81;;;19.04;65.80
48089;BME280;33867;50.314;7.802;2023-07-16T05:10:15;100216.13;;;18.82;65.84
48089;BME280;33867;50.314;7.802;2023-07-16T05:13:34;100216.41;;;18.93;65.64
48089;BME280;33867;50.314;7.802;2023-07-16T05:16:54;100229.03;;;18.94;65.71
48089;BME280;33867;50.314;7.802;2023-07-16T05:20:13;100243.75;;;19.00;65.49
48089;BME280;33867;50.314;7.802;2023-07-16T05:23:32;100231.09;;;18.92;64.74
48089;BME280;33867;50.314;7.802;2023-07-16T05:26:51;100245.06;;;18.76;63.39
48089;BME280;33867;50.314;7.802;2023-07-16T05:30:13;100247.88;;;18.89;63.90
48089;BME280;33867;50.314;7.802;2023-07-16T05:33:32;100253.13;;;18.84;64.12
48089;BME280;33867;50.314;7.802;2023-07-16T05:36:53;100263.34;;;18.82;62.13
48089;BME280;33867;50.314;7.802;2023-07-16T05:40:12;100259.44;;;18.91;62.28
48089;BME280;33867;50.314;7.802;2023-07-16T05:43:32;100269.50;;;19.19;62.17
48089;BME280;33867;50.314;7.802;2023-07-16T05:46:52;100275.81;;;19.26;60.96
48089;BME280;33867;50.314;7.802;2023-07-16T05:50:11;100272.22;;;19.19;60.50
48089;BME280;33867;50.314;7.802;2023-07-16T05:53:30;100274.19;;;19.79;59.96
48089;BME280;33867;50.314;7.802;2023-07-16T05:56:49;100266.03;;;23.69;49.30
48089;BME280;33867;50.314;7.802;2023-07-16T06:00:09;100272.94;;;27.30;42.13
48089;BME280;33867;50.314;7.802;2023-07-16T06:03:34;100262.66;;;29.14;36.31
48089;BME280;33867;50.314;7.802;2023-07-16T06:06:53;100263.09;;;31.02;32.44
48089;BME280;33867;50.314;7.802;2023-07-16T06:10:12;100267.84;;;32.65;31.05
48089;BME280;33867;50.314;7.802;2023-07-16T06:13:31;62132.72;;;-144.99;100.00
48089;BME280;33867;50.314;7.802;2023-07-16T06:16:50;100261.13;;;33.53;28.90
48089;BME280;33867;50.314;7.802;2023-07-16T06:20:09;100270.31;;;34.72;26.41
48089;BME280;33867;50.314;7.802;2023-07-16T06:23:28;100264.53;;;32.29;27.16
48089;BME280;33867;50.314;7.802;2023-07-16T06:26:48;100289.31;;;33.04;27.30
48089;BME280;33867;50.314;7.802;2023-07-16T06:30:08;100276.66;;;35.79;25.50
48089;BME280;33867;50.314;7.802;2023-07-16T06:33:27;100276.66;;;35.79;25.50
48089;BME280;33867;50.314;7.802;2023-07-16T06:36:47;100270.66;;;37.90;23.05
48089;BME280;33867;50.314;7.802;2023-07-16T06:40:06;100262.94;;;38.22;22.25
48089;BME280;33867;50.314;7.802;2023-07-16T06:43:25;100262.44;;;38.37;22.44
48089;BME280;33867;50.314;7.802;2023-07-16T06:46:45;100260.03;;;38.91;22.08
48089;BME280;33867;50.314;7.802;2023-07-16T06:50:04;100260.56;;;37.81;21.08
48089;BME280;33867;50.314;7.802;2023-07-16T06:53:24;100266.13;;;37.72;21.58
48089;BME280;33867;50.314;7.802;2023-07-16T06:56:44;100257.59;;;37.37;22.47
48089;BME280;33867;50.314;7.802;2023-07-16T07:00:03;100269.31;;;37.39;22.87
48089;BME280;33867;50.314;7.802;2023-07-16T07:03:23;100270.75;;;36.30;24.04
48089;BME280;33867;50.314;7.802;2023-07-16T07:06:42;100254.34;;;36.01;23.12
48089;BME280;33867;50.314;7.802;2023-07-16T07:10:01;100260.84;;;36.10;24.49
48089;BME280;33867;50.314;7.802;2023-07-16T07:13:20;100259.41;;;35.99;24.42
48089;BME280;33867;50.314;7.802;2023-07-16T07:16:40;100256.22;;;35.09;25.95
48089;BME280;33867;50.314;7.802;2023-07-16T07:20:00;100262.38;;;33.85;27.14
48089;BME280;33867;50.314;7.802;2023-07-16T07:23:19;100259.63;;;34.04;27.08
48089;BME280;33867;50.314;7.802;2023-07-16T07:26:38;100257.16;;;34.02;27.71
48089;BME280;33867;50.314;7.802;2023-07-16T07:29:57;100265.56;;;33.06;27.36
48089;BME280;33867;50.314;7.802;2023-07-16T07:33:16;100252.91;;;32.56;28.85
48089;BME280;33867;50.314;7.802;2023-07-16T07:36:36;100263.91;;;33.29;28.69
48089;BME280;33867;50.314;7.802;2023-07-16T07:39:55;100245.78;;;33.27;27.38
48089;BME280;33867;50.314;7.802;2023-07-16T07:43:17;100265.28;;;32.40;28.54
48089;BME280;33867;50.314;7.802;2023-07-16T07:46:36;100266.78;;;32.61;28.78
48089;BME280;33867;50.314;7.802;2023-07-16T07:49:55;100270.09;;;32.68;27.83
48089;BME280;33867;50.314;7.802;2023-07-16T07:53:16;100270.09;;;32.68;27.83
48089;BME280;33867;50.314;7.802;2023-07-16T07:56:36;100268.84;;;32.84;27.75
48089;BME280;33867;50.314;7.802;2023-07-16T07:59:55;100268.19;;;31.75;26.47
48089;BME280;33867;50.314;7.802;2023-07-16T08:03:16;100293.97;;;30.45;29.61
48089;BME280;33867;50.314;7.802;2023-07-16T08:06:35;100276.97;;;30.41;28.82
48089;BME280;33867;50.314;7.802;2023-07-16T08:09:54;100275.31;;;29.47;29.25
48089;BME280;33867;50.314;7.802;2023-07-16T08:13:13;100286.78;;;30.69;28.33
48089;BME280;33867;50.314;7.802;2023-07-16T08:16:32;100282.00;;;31.00;27.43
48089;BME280;33867;50.314;7.802;2023-07-16T08:19:51;100294.25;;;30.74;29.30
48089;BME280;33867;50.314;7.802;2023-07-16T08:23:10;100279.34;;;31.60;27.87
48089;BME280;33867;50.314;7.802;2023-07-16T08:26:29;100272.53;;;31.17;26.88
48089;BME280;33867;50.314;7.802;2023-07-16T08:29:49;100265.28;;;31.31;26.97
48089;BME280;33867;50.314;7.802;2023-07-16T08:33:08;100289.22;;;30.61;29.60
48089;BME280;33867;50.314;7.802;2023-07-16T08:36:49;100272.56;;;30.91;29.36
48089;BME280;33867;50.314;7.802;2023-07-16T08:40:12;100282.59;;;30.67;29.24
48089;BME280;33867;50.314;7.802;2023-07-16T08:43:32;100281.91;;;29.98;29.60
48089;BME280;33867;50.314;7.802;2023-07-16T08:46:52;100271.19;;;30.83;28.79
48089;BME280;33867;50.314;7.802;2023-07-16T08:50:11;100271.84;;;29.82;29.82
48089;BME280;33867;50.314;7.802;2023-07-16T08:53:32;100296.50;;;29.16;30.96
48089;BME280;33867;50.314;7.802;2023-07-16T08:56:51;100288.78;;;29.28;30.28
48089;BME280;33867;50.314;7.802;2023-07-16T09:00:11;100301.16;;;30.41;29.75
48089;BME280;33867;50.314;7.802;2023-07-16T09:03:32;100307.31;;;29.65;30.79
48089;BME280;33867;50.314;7.802;2023-07-16T09:06:51;100295.56;;;28.68;31.08
48089;BME280;33867;50.314;7.802;2023-07-16T09:10:11;100291.81;;;28.25;29.57
48089;BME280;33867;50.314;7.802;2023-07-16T09:13:30;100304.00;;;29.21;30.81
48089;BME280;33867;50.314;7.802;2023-07-16T09:16:53;100305.75;;;29.89;30.04
48089;BME280;33867;50.314;7.802;2023-07-16T09:20:15;100304.22;;;30.49;29.39
48089;BME280;33867;50.314;7.802;2023-07-16T09:23:34;100310.16;;;29.33;27.12
48089;BME280;33867;50.314;7.802;2023-07-16T09:26:54;100331.56;;;29.00;30.67
48089;BME280;33867;50.314;7.802;2023-07-16T09:30:16;100331.00;;;28.39;29.92
48089;BME280;33867;50.314;7.802;2023-07-16T09:33:36;100339.72;;;27.60;32.04
48089;BME280;33867;50.314;7.802;2023-07-16T09:36:56;100320.84;;;27.57;31.79
48089;BME280;33867;50.314;7.802;2023-07-16T09:40:15;100330.41;;;26.94;32.30
48089;BME280;33867;50.314;7.802;2023-07-16T09:43:34;100325.25;;;27.15;33.62
48089;BME280;33867;50.314;7.802;2023-07-16T09:46:54;100335.22;;;27.16;33.45
48089;BME280;33867;50.314;7.802;2023-07-16T09:50:14;100326.56;;;26.95;33.53
48089;BME280;33867;50.314;7.802;2023-07-16T09:53:34;100319.13;;;27.51;32.27
48089;BME280;33867;50.314;7.802;2023-07-16T09:56:57;100322.44;;;27.31;33.71
48089;BME280;33867;50.314;7.802;2023-07-16T10:00:19;100297.06;;;27.56;33.66
48089;BME280;33867;50.314;7.802;2023-07-16T10:03:49;100302.69;;;27.61;34.14
48089;BME280;33867;50.314;7.802;2023-07-16T10:07:23;100320.38;;;27.22;34.63
48089;BME280;33867;50.314;7.802;2023-07-16T10:10:55;100313.69;;;27.18;33.82
48089;BME280;33867;50.314;7.802;2023-07-16T10:14:24;100315.28;;;27.52;32.91
48089;BME280;33867;50.314;7.802;2023-07-16T10:17:50;100295.56;;;27.27;32.75
48089;BME280;33867;50.314;7.802;2023-07-16T10:21:09;100309.00;;;27.79;32.57
48089;BME280;33867;50.314;7.802;2023-07-16T10:24:30;100298.50;;;27.81;32.25
48089;BME280;33867;50.314;7.802;2023-07-16T10:27:51;100289.00;;;28.79;31.87
48089;BME280;33867;50.314;7.802;2023-07-16T10:31:19;100305.59;;;29.11;31.22
48089;BME280;33867;50.314;7.802;2023-07-16T10:34:39;100295.91;;;29.14;31.79
48089;BME280;33867;50.314;7.802;2023-07-16T10:37:58;100293.28;;;30.02;28.99
48089;BME280;33867;50.314;7.802;2023-07-16T10:41:17;100299.13;;;29.43;30.20
48089;BME280;33867;50.314;7.802;2023-07-16T10:44:36;100309.38;;;28.95;30.82
48089;BME280;33867;50.314;7.802;2023-07-16T10:47:56;100305.75;;;28.90;30.98
48089;BME280;33867;50.314;7.802;2023-07-16T10:51:15;100291.97;;;29.05;31.20
48089;BME280;33867;50.314;7.802;2023-07-16T10:54:35;100287.97;;;29.85;30.51
48089;BME280;33867;50.314;7.802;2023-07-16T10:57:55;100290.88;;;30.21;29.53
48089;BME280;33867;50.314;7.802;2023-07-16T11:01:15;100292.06;;;29.67;29.81
48089;BME280;33867;50.314;7.802;2023-07-16T11:04:34;100292.50;;;30.17;29.39
48089;BME280;33867;50.314;7.802;2023-07-16T11:07:54;100310.38;;;30.77;27.91
48089;BME280;33867;50.314;7.802;2023-07-16T11:11:13;100301.69;;;31.50;27.85
48089;BME280;33867;50.314;7.802;2023-07-16T11:14:32;100285.84;;;32.05;27.01
48089;BME280;33867;50.314;7.802;2023-07-16T11:17:52;100287.25;;;31.22;28.63
48089;BME280;33867;50.314;7.802;2023-07-16T11:21:11;100289.81;;;30.78;28.58
48089;BME280;33867;50.314;7.802;2023-07-16T11:24:48;100296.41;;;31.33;27.61
48089;BME280;33867;50.314;7.802;2023-07-16T11:28:08;100297.78;;;30.18;28.31
48089;BME280;33867;50.314;7.802;2023-07-16T11:31:27;100298.91;;;30.17;27.98
48089;BME280;33867;50.314;7.802;2023-07-16T11:34:55;100299.28;;;30.72;27.54
48089;BME280;33867;50.314;7.802;2023-07-16T11:38:17;100296.75;;;31.06;26.46
48089;BME280;33867;50.314;7.802;2023-07-16T11:41:36;100288.13;;;30.87;27.52
48089;BME280;33867;50.314;7.802;2023-07-16T11:44:56;100297.50;;;31.37;27.60
48089;BME280;33867;50.314;7.802;2023-07-16T11:48:16;100292.25;;;30.23;26.06
48089;BME280;33867;50.314;7.802;2023-07-16T11:51:34;100300.88;;;30.27;28.21
48089;BME280;33867;50.314;7.802;2023-07-16T11:54:56;100288.56;;;30.03;27.06
48089;BME280;33867;50.314;7.802;2023-07-16T11:58:15;100301.31;;;29.88;27.45
48089;BME280;33867;50.314;7.802;2023-07-16T12:01:34;100321.69;;;29.52;29.08
48089;BME280;33867;50.314;7.802;2023-07-16T12:04:53;100308.63;;;29.10;28.98
48089;BME280;33867;50.314;7.802;2023-07-16T12:08:12;100297.41;;;29.84;28.08
48089;BME280;33867;50.314;7.802;2023-07-16T12:11:33;100284.44;;;29.42;28.72
48089;BME280;33867;50.314;7.802;2023-07-16T12:14:52;100295.09;;;28.81;29.07
48089;BME280;33867;50.314;7.802;2023-07-16T12:18:11;100287.09;;;28.53;27.29
48089;BME280;33867;50.314;7.802;2023-07-16T12:21:30;100301.22;;;29.21;28.94
48089;BME280;33867;50.314;7.802;2023-07-16T12:24:49;100302.38;;;29.77;28.58
48089;BME280;33867;50.314;7.802;2023-07-16T12:28:08;100302.84;;;30.32;27.34
48089;BME280;33867;50.314;7.802;2023-07-16T12:31:28;100274.41;;;29.99;25.77
48089;BME280;33867;50.314;7.802;2023-07-16T12:34:47;100309.75;;;30.24;25.41
48089;BME280;33867;50.314;7.802;2023-07-16T12:38:06;100287.84;;;29.60;27.54
48089;BME280;33867;50.314;7.802;2023-07-16T12:41:26;100279.00;;;29.63;27.55
48089;BME280;33867;50.314;7.802;2023-07-16T12:44:45;100284.78;;;30.44;27.05
48089;BME280;33867;50.314;7.802;2023-07-16T12:48:05;100296.72;;;30.60;27.46
48089;BME280;33867;50.314;7.802;2023-07-16T12:51:24;100305.28;;;30.13;27.32
48089;BME280;33867;50.314;7.802;2023-07-16T12:54:43;100310.03;;;29.55;28.22
48089;BME280;33867;50.314;7.802;2023-07-16T12:58:02;100291.63;;;28.32;28.24
48089;BME280;33867;50.314;7.802;2023-07-16T13:01:21;100292.34;;;29.71;27.95
48089;BME280;33867;50.314;7.802;2023-07-16T13:04:40;100308.13;;;29.60;27.40
48089;BME280;33867;50.314;7.802;2023-07-16T13:07:59;100275.63;;;29.56;27.54
48089;BME280;33867;50.314;7.802;2023-07-16T13:11:18;100277.72;;;29.33;27.14
48089;BME280;33867;50.314;7.802;2023-07-16T13:14:37;100278.94;;;30.20;27.33
48089;BME280;33867;50.314;7.802;2023-07-16T13:17:56;100271.47;;;30.56;26.45
48089;BME280;33867;50.314;7.802;2023-07-16T13:21:15;100294.78;;;31.22;26.41
48089;BME280;33867;50.314;7.802;2023-07-16T13:24:34;100287.34;;;31.82;26.24
48089;BME280;33867;50.314;7.802;2023-07-16T13:27:53;100265.97;;;32.16;24.30
48089;BME280;33867;50.314;7.802;2023-07-16T13:31:12;100271.09;;;32.43;24.97
48089;BME280;33867;50.314;7.802;2023-07-16T13:34:31;100278.63;;;32.82;25.45
48089;BME280;33867;50.314;7.802;2023-07-16T13:37:50;100270.22;;;31.44;26.66
48089;BME280;33867;50.314;7.802;2023-07-16T13:41:09;100277.84;;;30.98;25.75
48089;BME280;33867;50.314;7.802;2023-07-16T13:44:29;100284.78;;;30.44;26.38
48089;BME280;33867;50.314;7.802;2023-07-16T13:47:49;100299.19;;;30.16;26.13
48089;BME280;33867;50.314;7.802;2023-07-16T13:51:10;100294.09;;;29.35;27.61
48089;BME280;33867;50.314;7.802;2023-07-16T13:54:29;100285.78;;;29.97;28.03
48089;BME280;33867;50.314;7.802;2023-07-16T13:57:48;100287.84;;;30.33;26.37
48089;BME280;33867;50.314;7.802;2023-07-16T14:01:07;100291.69;;;30.16;26.21
48089;BME280;33867;50.314;7.802;2023-07-16T14:04:29;100290.44;;;29.77;26.51
48089;BME280;33867;50.314;7.802;2023-07-16T14:07:48;100297.44;;;30.05;27.10
48089;BME280;33867;50.314;7.802;2023-07-16T14:11:08;100308.38;;;30.21;27.05
48089;BME280;33867;50.314;7.802;2023-07-16T14:14:27;100300.16;;;29.74;26.83
48089;BME280;33867;50.314;7.802;2023-07-16T14:17:46;100297.28;;;29.54;27.30
48089;BME280;33867;50.314;7.802;2023-07-16T14:21:05;100302.81;;;29.54;27.15
48089;BME280;33867;50.314;7.802;2023-07-16T14:24:24;100296.84;;;29.30;26.52
48089;BME280;33867;50.314;7.802;2023-07-16T14:27:43;100297.81;;;29.51;27.73
48089;BME280;33867;50.314;7.802;2023-07-16T14:31:03;100284.78;;;29.56;27.82
48089;BME280;33867;50.314;7.802;2023-07-16T14:34:22;100285.41;;;29.21;26.60
48089;BME280;33867;50.314;7.802;2023-07-16T14:37:41;100282.06;;;29.14;27.29
48089;BME280;33867;50.314;7.802;2023-07-16T14:41:00;100288.28;;;29.36;27.71
48089;BME280;33867;50.314;7.802;2023-07-16T14:44:20;100285.47;;;29.26;27.52
48089;BME280;33867;50.314;7.802;2023-07-16T14:47:39;100268.44;;;29.12;27.64
48089;BME280;33867;50.314;7.802;2023-07-16T14:50:58;100276.00;;;29.75;27.41
48089;BME280;33867;50.314;7.802;2023-07-16T14:54:17;100286.06;;;29.96;26.57
48089;BME280;33867;50.314;7.802;2023-07-16T14:57:37;100301.13;;;29.48;26.64
48089;BME280;33867;50.314;7.802;2023-07-16T15:00:59;100277.94;;;29.22;26.20
48089;BME280;33867;50.314;7.802;2023-07-16T15:04:18;100275.97;;;29.64;28.09
48089;BME280;33867;50.314;7.802;2023-07-16T15:07:37;100289.31;;;29.83;26.40
48089;BME280;33867;50.314;7.802;2023-07-16T15:10:57;100265.47;;;29.82;25.44
48089;BME280;33867;50.314;7.802;2023-07-16T15:14:17;100270.28;;;30.12;26.10
48089;BME280;33867;50.314;7.802;2023-07-16T15:17:36;100268.56;;;30.01;25.66
48089;BME280;33867;50.314;7.802;2023-07-16T15:21:00;100255.44;;;29.70;25.35
48089;BME280;33867;50.314;7.802;2023-07-16T15:24:19;100275.31;;;29.47;26.54
48089;BME280;33867;50.314;7.802;2023-07-16T15:27:39;100270.81;;;29.41;26.27
48089;BME280;33867;50.314;7.802;2023-07-16T15:30:58;100273.22;;;29.75;26.92
48089;BME280;33867;50.314;7.802;2023-07-16T15:34:19;100278.25;;;29.93;27.48
48089;BME280;33867;50.314;7.802;2023-07-16T15:37:38;100273.91;;;30.17;27.03
48089;BME280;33867;50.314;7.802;2023-07-16T15:40:57;100277.53;;;30.23;25.88
48089;BME280;33867;50.314;7.802;2023-07-16T15:44:16;100275.56;;;30.13;26.47
48089;BME280;33867;50.314;7.802;2023-07-16T15:47:36;100280.19;;;29.87;27.18
48089;BME280;33867;50.314;7.802;2023-07-16T15:50:58;100282.56;;;29.11;27.93
48089;BME280;33867;50.314;7.802;2023-07-16T15:54:17;100271.59;;;29.31;27.62
48089;BME280;33867;50.314;7.802;2023-07-16T15:57:36;100273.25;;;29.90;27.20
48089;BME280;33867;50.314;7.802;2023-07-16T16:00:55;100276.63;;;29.97;27.43
48089;BME280;33867;50.314;7.802;2023-07-16T16:04:15;100259.69;;;29.36;26.41
48089;BME280;33867;50.314;7.802;2023-07-16T16:07:34;100256.16;;;28.98;27.64
48089;BME280;33867;50.314;7.802;2023-07-16T16:10:54;100255.06;;;28.30;27.93
48089;BME280;33867;50.314;7.802;2023-07-16T16:14:14;100246.88;;;27.91;27.31
48089;BME280;33867;50.314;7.802;2023-07-16T16:17:33;100251.59;;;28.45;27.29
48089;BME280;33867;50.314;7.802;2023-07-16T16:20:53;100243.38;;;28.60;26.15
48089;BME280;33867;50.314;7.802;2023-07-16T16:24:11;100246.72;;;28.99;27.73
48089;BME280;33867;50.314;7.802;2023-07-16T16:27:31;100245.91;;;28.99;27.86
48089;BME280;33867;50.314;7.802;2023-07-16T16:30:50;100238.84;;;28.86;26.75
48089;BME280;33867;50.314;7.802;2023-07-16T16:34:09;100237.91;;;28.06;28.02
48089;BME280;33867;50.314;7.802;2023-07-16T16:37:28;100242.19;;;28.19;26.93
48089;BME280;33867;50.314;7.802;2023-07-16T16:40:47;100245.19;;;28.17;27.02
48089;BME280;33867;50.314;7.802;2023-07-16T16:44:06;100229.63;;;28.38;28.11
48089;BME280;33867;50.314;7.802;2023-07-16T16:47:25;100238.09;;;28.91;27.78
48089;BME280;33867;50.314;7.802;2023-07-16T16:50:44;100239.84;;;29.02;27.52
48089;BME280;33867;50.314;7.802;2023-07-16T16:54:03;100234.03;;;29.03;27.52
48089;BME280;33867;50.314;7.802;2023-07-16T16:57:22;100235.50;;;28.79;27.07
48089;BME280;33867;50.314;7.802;2023-07-16T17:00:41;100245.75;;;28.78;28.22
48089;BME280;33867;50.314;7.802;2023-07-16T17:04:00;100229.13;;;28.78;27.79
48089;BME280;33867;50.314;7.802;2023-07-16T17:07:19;100235.06;;;28.55;27.99
48089;BME280;33867;50.314;7.802;2023-07-16T17:10:39;100242.13;;;28.41;28.02
48089;BME280;33867;50.314;7.802;2023-07-16T17:13:59;100245.63;;;28.04;27.95
48089;BME280;33867;50.314;7.802;2023-07-16T17:17:18;100245.44;;;28.11;28.53
48089;BME280;33867;50.314;7.802;2023-07-16T17:20:38;100238.94;;;28.00;28.63
48089;BME280;33867;50.314;7.802;2023-07-16T17:23:57;100237.84;;;28.01;28.52
48089;BME280;33867;50.314;7.802;2023-07-16T17:27:16;100240.09;;;28.04;28.68
48089;BME280;33867;50.314;7.802;2023-07-16T17:30:35;100233.00;;;28.13;29.61
48089;BME280;33867;50.314;7.802;2023-07-16T17:33:54;100242.19;;;28.19;29.50